createdAt,value
2018-12-24T00:02:56.137Z,2.77
2018-12-24T00:07:00.394Z,2.80
2018-12-24T00:11:04.637Z,3.10
2018-12-24T00:15:09.169Z,3.60
2018-12-24T00:19:16.409Z,3.50
2018-12-24T00:23:20.647Z,4.40
2018-12-24T00:27:24.907Z,4.67
2018-12-24T00:31:29.194Z,5.40
2018-12-24T00:35:33.431Z,5.00
2018-12-24T00:39:43.959Z,4.40
2018-12-24T00:43:48.480Z,4.77
2018-12-24T00:47:52.704Z,4.10
2018-12-24T00:51:57.121Z,4.20
2018-12-24T00:56:01.499Z,4.60
2018-12-24T01:00:05.988Z,3.37
2018-12-24T01:04:10.852Z,3.10
2018-12-24T01:08:15.286Z,3.60
2018-12-24T01:12:24.593Z,2.60
2018-12-24T01:16:25.957Z,3.23
2018-12-24T01:20:30.306Z,2.43
2018-12-24T01:24:36.586Z,3.00
2018-12-24T01:28:40.860Z,2.50
2018-12-24T01:32:45.033Z,2.30
2018-12-24T01:36:49.642Z,2.83
2018-12-24T01:40:53.840Z,2.10
2018-12-24T01:44:58.361Z,2.30
2018-12-24T01:49:02.553Z,2.77
2018-12-24T01:53:12.818Z,1.70
2018-12-24T01:57:17.148Z,2.00
2018-12-24T02:01:21.504Z,2.27
2018-12-24T02:05:25.692Z,1.93
2018-12-24T02:09:29.965Z,2.10
2018-12-24T02:13:34.141Z,2.47
2018-12-24T02:17:39.819Z,1.80
2018-12-24T02:21:44.095Z,1.87
2018-12-24T02:25:47.808Z,1.60
2018-12-24T02:29:52.190Z,1.80
2018-12-24T02:33:56.996Z,2.17
2018-12-24T02:38:01.237Z,1.90
2018-12-24T02:42:06.363Z,1.90
2018-12-24T02:46:10.619Z,2.07
2018-12-24T02:50:14.903Z,1.37
2018-12-24T02:54:19.101Z,1.00
2018-12-24T02:58:23.587Z,1.20
2018-12-24T03:02:27.872Z,1.40
2018-12-24T03:06:32.371Z,1.50
2018-12-24T03:10:39.742Z,1.97
2018-12-24T03:14:44.279Z,1.10
2018-12-24T03:18:48.816Z,1.37
2018-12-24T03:22:53.107Z,1.50
2018-12-24T03:26:57.718Z,1.67
2018-12-24T03:31:02.001Z,1.90
2018-12-24T03:35:06.384Z,1.67
2018-12-24T03:39:13.992Z,1.60
2018-12-24T03:43:18.284Z,1.70
2018-12-24T03:47:22.662Z,1.80
2018-12-24T03:51:26.899Z,1.70
2018-12-24T03:55:31.336Z,2.10
2018-12-24T03:59:35.911Z,1.33
2018-12-24T04:03:40.479Z,1.33
2018-12-24T04:07:44.787Z,1.50
2018-12-24T04:11:49.330Z,1.30
2018-12-24T04:15:53.499Z,2.13
2018-12-24T04:19:57.830Z,1.40
2018-12-24T04:24:02.243Z,1.47
2018-12-24T04:28:12.102Z,1.30
2018-12-24T04:32:16.331Z,1.50
2018-12-24T04:36:20.544Z,1.60
2018-12-24T04:40:24.824Z,1.40
2018-12-24T04:44:29.567Z,1.50
2018-12-24T04:48:33.951Z,1.50
2018-12-24T04:52:38.327Z,1.63
2018-12-24T04:56:42.531Z,1.53
2018-12-24T05:00:47.070Z,1.90
2018-12-24T05:04:51.561Z,1.63
2018-12-24T05:08:55.851Z,2.87
2018-12-24T05:13:00.295Z,2.07
2018-12-24T05:17:04.540Z,2.20
2018-12-24T05:21:08.723Z,1.50
2018-12-24T05:25:13.291Z,1.80
2018-12-24T05:29:18.473Z,2.30
2018-12-24T05:33:22.771Z,2.87
2018-12-24T05:37:27.072Z,1.70
2018-12-24T05:41:31.269Z,2.40
2018-12-24T05:45:35.494Z,3.30
2018-12-24T05:49:39.919Z,2.40
2018-12-24T05:53:44.164Z,2.13
2018-12-24T05:57:48.469Z,2.27
2018-12-24T06:01:52.726Z,2.47
2018-12-24T06:05:57.264Z,2.47
2018-12-24T06:10:01.643Z,3.20
2018-12-24T06:14:05.871Z,2.97
2018-12-24T06:18:10.398Z,2.30
2018-12-24T06:22:14.625Z,2.90
2018-12-24T06:26:18.864Z,2.90
2018-12-24T06:30:23.183Z,2.20
2018-12-24T06:34:27.445Z,3.07
2018-12-24T06:38:31.979Z,2.60
2018-12-24T06:42:36.160Z,2.63
2018-12-24T06:46:40.479Z,2.33
2018-12-24T06:50:45.132Z,2.33
2018-12-24T06:54:49.456Z,2.23
2018-12-24T06:58:53.623Z,2.30
2018-12-24T07:02:58.533Z,2.10
2018-12-24T07:07:02.726Z,3.00
2018-12-24T07:11:06.993Z,2.43
2018-12-24T07:15:11.324Z,2.97
2018-12-24T07:19:15.663Z,2.60
2018-12-24T07:23:19.871Z,2.40
2018-12-24T07:27:24.328Z,2.60
2018-12-24T07:31:28.629Z,2.63
2018-12-24T07:35:33.097Z,2.40
2018-12-24T07:39:37.412Z,3.17
2018-12-24T07:43:41.619Z,2.23
2018-12-24T07:47:45.845Z,2.40
2018-12-24T07:51:50.165Z,2.60
2018-12-24T07:55:54.348Z,3.40
2018-12-24T07:59:58.915Z,3.47
2018-12-24T08:04:03.085Z,3.00
2018-12-24T08:08:07.506Z,3.03
2018-12-24T08:12:12.866Z,2.70
2018-12-24T08:16:17.170Z,2.70
2018-12-24T08:20:21.479Z,2.57
2018-12-24T08:24:26.035Z,3.10
2018-12-24T08:28:30.303Z,3.03
2018-12-24T08:32:34.718Z,3.30
2018-12-24T08:36:39.279Z,2.57
2018-12-24T08:40:43.939Z,3.07
2018-12-24T08:44:48.543Z,3.87
2018-12-24T08:48:53.115Z,3.60
2018-12-24T08:52:57.310Z,3.87
2018-12-24T08:57:01.647Z,4.00
2018-12-24T09:01:05.826Z,3.77
2018-12-24T09:05:10.340Z,3.20
2018-12-24T09:09:14.550Z,3.30
2018-12-24T09:13:18.767Z,4.33
2018-12-24T09:17:23.256Z,4.57
2018-12-24T09:21:38.042Z,3.70
2018-12-24T09:25:42.560Z,3.10
2018-12-24T09:29:46.789Z,4.03
2018-12-24T09:33:51.038Z,2.90
2018-12-24T09:37:55.285Z,3.90
2018-12-24T09:41:59.731Z,2.77
2018-12-24T09:46:04.036Z,3.27
2018-12-24T09:50:08.330Z,3.47
2018-12-24T09:54:12.616Z,3.67
2018-12-24T09:58:16.883Z,3.20
2018-12-24T10:02:24.827Z,3.00
2018-12-24T10:06:36.154Z,3.30
2018-12-24T10:10:44.524Z,3.87
2018-12-24T10:14:49.094Z,3.60
2018-12-24T10:18:53.430Z,5.80
2018-12-24T10:23:16.902Z,9.60
2018-12-24T10:27:21.659Z,14.20
2018-12-24T10:31:28.498Z,7.60
2018-12-24T10:35:33.074Z,6.13
2018-12-24T10:39:39.253Z,5.20
2018-12-24T10:43:46.722Z,4.40
2018-12-24T10:47:50.903Z,4.17
2018-12-24T10:51:55.110Z,3.57
2018-12-24T10:55:59.314Z,3.40
2018-12-24T11:00:03.663Z,3.57
2018-12-24T11:04:07.919Z,2.93
2018-12-24T11:08:12.158Z,2.90
2018-12-24T11:12:16.429Z,3.40
2018-12-24T11:16:20.694Z,2.40
2018-12-24T11:20:24.914Z,6.93
2018-12-24T11:24:29.431Z,3.40
2018-12-24T11:28:33.922Z,2.60
2018-12-24T11:32:38.135Z,3.17
2018-12-24T11:36:42.318Z,3.37
2018-12-24T11:40:46.820Z,3.23
2018-12-24T11:44:51.284Z,2.47
2018-12-24T11:48:56.007Z,2.63
2018-12-24T11:53:00.276Z,3.13
2018-12-24T11:57:04.912Z,3.20
2018-12-24T12:01:10.012Z,3.10
2018-12-24T12:05:14.395Z,2.43
2018-12-24T12:09:18.523Z,2.70
2018-12-24T12:13:22.782Z,3.17
2018-12-24T12:17:26.963Z,2.93
2018-12-24T12:21:31.190Z,2.70
2018-12-24T12:25:35.458Z,2.40
2018-12-24T12:29:39.736Z,2.50
2018-12-24T12:33:44.284Z,2.83
2018-12-24T12:37:48.774Z,2.40
2018-12-24T12:41:53.011Z,2.50
2018-12-24T12:46:01.457Z,2.93
2018-12-24T12:50:05.889Z,8.57
2018-12-24T12:54:10.168Z,2.93
2018-12-24T12:58:14.613Z,2.03
2018-12-24T13:02:19.028Z,4.33
2018-12-24T13:06:23.399Z,3.20
2018-12-24T13:10:30.445Z,2.40
2018-12-24T13:14:34.796Z,2.27
2018-12-24T13:18:39.194Z,2.37
2018-12-24T13:22:43.496Z,2.47
2018-12-24T13:26:47.803Z,2.13
2018-12-24T13:30:52.027Z,2.63
2018-12-24T13:34:56.514Z,2.70
2018-12-24T13:39:01.005Z,2.30
2018-12-24T13:43:05.379Z,2.77
2018-12-24T13:47:09.921Z,2.40
2018-12-24T13:51:14.131Z,2.30
2018-12-24T13:55:18.303Z,2.40
2018-12-24T13:59:23.511Z,3.27
2018-12-24T14:03:28.328Z,3.10
2018-12-24T14:07:33.123Z,3.00
2018-12-24T14:11:37.423Z,2.40
2018-12-24T14:15:41.739Z,2.70
2018-12-24T14:20:19.575Z,3.23
2018-12-24T14:24:23.660Z,4.23
2018-12-24T14:28:27.470Z,3.60
2018-12-24T14:32:31.593Z,3.37
2018-12-24T14:36:36.022Z,3.30
2018-12-24T14:40:39.949Z,3.80
2018-12-24T14:44:44.048Z,3.23
2018-12-24T14:48:47.820Z,2.87
2018-12-24T14:52:51.585Z,1.93
2018-12-24T14:56:55.559Z,2.90
2018-12-24T15:00:59.404Z,8.23
2018-12-24T15:05:03.329Z,3.00
2018-12-24T15:09:07.453Z,2.30
2018-12-24T15:13:13.658Z,2.83
2018-12-24T15:17:17.655Z,2.63
2018-12-24T15:21:21.547Z,2.40
2018-12-24T15:25:25.284Z,2.90
2018-12-24T15:29:29.608Z,2.50
2018-12-24T15:33:33.352Z,2.40
2018-12-24T15:37:37.165Z,2.30
2018-12-24T15:41:40.991Z,2.13
2018-12-24T15:45:44.863Z,2.20
2018-12-24T15:49:48.696Z,2.00
2018-12-24T15:53:52.455Z,2.10
2018-12-24T15:57:56.204Z,1.77
2018-12-24T16:02:00.256Z,2.20
2018-12-24T16:06:03.999Z,1.93
2018-12-24T16:10:07.839Z,2.40
2018-12-24T16:14:11.555Z,1.83
2018-12-24T16:18:15.599Z,2.23
2018-12-24T16:22:19.331Z,3.67
2018-12-24T16:26:23.446Z,2.50
2018-12-24T16:30:27.180Z,2.10
2018-12-24T16:34:30.974Z,3.40
2018-12-24T16:38:34.718Z,2.77
2018-12-24T16:42:38.541Z,3.30
2018-12-24T16:46:42.354Z,2.83
2018-12-24T16:50:46.118Z,4.50
2018-12-24T16:54:49.860Z,5.53
2018-12-24T16:58:53.684Z,5.70
2018-12-24T17:02:57.416Z,4.17
2018-12-24T17:07:01.252Z,4.00
2018-12-24T17:11:05.042Z,3.60
2018-12-24T17:15:08.927Z,4.37
2018-12-24T17:19:12.653Z,4.30
2018-12-24T17:23:16.416Z,4.50
2018-12-24T17:27:20.159Z,3.50
2018-12-24T17:31:23.969Z,3.30
2018-12-24T17:35:27.718Z,3.90
2018-12-24T17:39:31.763Z,4.17
2018-12-24T17:43:36.043Z,3.90
2018-12-24T17:47:39.832Z,6.70
2018-12-24T17:51:43.604Z,13.53
2018-12-24T17:55:47.427Z,7.70
2018-12-24T17:59:51.157Z,5.67
2018-12-24T18:03:54.958Z,3.80
2018-12-24T18:07:58.710Z,4.10
2018-12-24T18:12:02.782Z,4.37
2018-12-24T18:16:06.507Z,6.63
2018-12-24T18:20:10.584Z,3.97
2018-12-24T18:24:14.427Z,3.67
2018-12-24T18:28:18.273Z,3.53
2018-12-24T18:32:22.016Z,3.40
2018-12-24T18:36:25.948Z,3.20
2018-12-24T18:40:29.919Z,4.23
2018-12-24T18:44:33.786Z,5.90
2018-12-24T18:48:37.784Z,7.97
2018-12-24T18:52:41.695Z,4.53
2018-12-24T18:56:45.455Z,5.00
2018-12-24T19:00:49.438Z,4.00
2018-12-24T19:04:56.149Z,4.40
2018-12-24T19:09:00.228Z,4.43
2018-12-24T19:13:04.408Z,4.70
2018-12-24T19:17:08.406Z,4.27
2018-12-24T19:21:12.484Z,4.37
2018-12-24T19:25:16.436Z,5.07
2018-12-24T19:29:20.284Z,5.70
2018-12-24T19:33:24.230Z,4.97
2018-12-24T19:37:28.171Z,4.10
2018-12-24T19:41:32.047Z,3.77
2018-12-24T19:45:35.890Z,3.97
2018-12-24T19:49:40.231Z,6.37
2018-12-24T19:53:44.163Z,12.03
2018-12-24T19:57:48.021Z,11.60
2018-12-24T20:01:51.836Z,7.90
2018-12-24T20:05:56.501Z,6.10
2018-12-24T20:10:00.588Z,4.50
2018-12-24T20:14:04.537Z,4.10
2018-12-24T20:18:08.395Z,4.60
2018-12-24T20:22:12.787Z,3.67
2018-12-24T20:26:16.713Z,4.30
2018-12-24T20:30:20.698Z,3.90
2018-12-24T20:34:27.024Z,4.20
2018-12-24T20:38:36.949Z,4.77
2018-12-24T20:42:36.926Z,3.97
2018-12-24T20:46:42.227Z,3.87
2018-12-24T20:50:46.193Z,4.00
2018-12-24T20:54:50.136Z,4.40
2018-12-24T20:58:54.212Z,5.33
2018-12-24T21:02:58.210Z,6.03
2018-12-24T21:07:02.406Z,5.03
2018-12-24T21:11:06.723Z,6.37
2018-12-24T21:15:10.830Z,6.23
2018-12-24T21:19:14.824Z,5.50
2018-12-24T21:23:19.042Z,6.93
2018-12-24T21:27:22.985Z,5.90
2018-12-24T21:31:27.382Z,5.17
2018-12-24T21:35:31.288Z,5.80
2018-12-24T21:39:44.785Z,4.63
2018-12-24T21:43:48.891Z,4.37
2018-12-24T21:47:56.210Z,6.07
2018-12-24T21:52:05.887Z,5.87
2018-12-24T21:56:10.000Z,5.60
2018-12-24T22:00:21.669Z,5.57
2018-12-24T22:04:25.586Z,6.57
2018-12-24T22:08:29.533Z,6.40
2018-12-24T22:12:33.385Z,7.23
2018-12-24T22:16:37.517Z,7.00
2018-12-24T22:20:41.572Z,7.27
2018-12-24T22:24:47.760Z,6.40
2018-12-24T22:28:52.993Z,7.53
2018-12-24T22:32:57.132Z,7.30
2018-12-24T22:37:01.124Z,8.70
2018-12-24T22:41:05.409Z,7.90
2018-12-24T22:45:09.267Z,7.33
2018-12-24T22:49:13.159Z,6.90
2018-12-24T22:53:18.273Z,7.20
2018-12-24T22:57:23.247Z,7.53
2018-12-24T23:01:27.386Z,6.27
2018-12-24T23:05:31.574Z,6.23
2018-12-24T23:09:35.527Z,7.20
2018-12-24T23:13:42.985Z,5.97
2018-12-24T23:17:47.134Z,7.63
2018-12-24T23:21:52.078Z,6.77
2018-12-24T23:25:59.280Z,7.47
2018-12-24T23:30:05.667Z,6.00
2018-12-24T23:34:15.073Z,6.70
2018-12-24T23:38:20.534Z,6.17
2018-12-24T23:42:25.935Z,5.67
2018-12-24T23:46:29.893Z,6.60
2018-12-24T23:50:35.012Z,6.27
2018-12-24T23:54:39.725Z,6.13
2018-12-24T23:58:48.216Z,6.27
